Hlavní strana
METAR-TAF:

METAR-TAF

Letiště :

Statesboro-Bulloch County Airport

Statesboro, Georgie, Spojené státy americké

zeměpisná šířka: 32-28-59N, zeměpisná délka: 081-44-14W, výška: 57 m

Aktuální stav počasí

Zpráva byla vytvořena před 20 minutami, v 01:55 UTC
Jihojihozápadní vítr 3 kt
Teplota 22°C
Vlhkost vzduchu 94%
Tlak 1018 hPa
Viditelnost: 16.1 km
Polojasno ve výšce 10000 ft
Polojasno ve výšce 12000 ft
slabý déšť

METAR: KTBR 300155Z AUTO 21003KT 10SM -RA SCT100 SCT120 22/21 A3006 RMK AO2 LTG DSNT E T02200205

Čas: 22:15 (02:15 UTC)


TAF: chybějící

Stav a předpovědi počasí z více než 4 000 letišť (zprávy METAR a TAF).

Červené a žluté tečky na mapě představují dostupné meteorologické stanice.

Když kurzor umístíte na tečku, zobrazí se název stanice.

Pak kliknutím zobrazíte stav a předpověď počasí.

Chcete-li změnit mapu, kliknutím na zelené tlačítko se znaménkem +mapu přiblížíte, kliknutím na zelené tlačítko se znaménkem – mapu oddálíte a kliknutím na zelené šipky přejdete na sousední mapy.


METAR-TAF: